Time;durP1;ratioP1;P1;durP2;ratioP2;P2;SDS_P1;SDS_P2;PMS_P1;PMS_P2;Temp;Humidity;BMP_temperature;BMP_pressure;BME280_temperature;BME280_humidity;BME280_pressure;Samples;Min_cycle;Max_cycle;Signal;HPM_P1;HPM_P2
2022/04/19 00:00:16;;;;;;;2.00;1.80;;;10.90;83.00;;;;;;5109375;28;20560;-68
2022/04/19 00:02:43;;;;;;;1.50;1.20;;;10.90;83.30;;;;;;5109249;28;20197;-69
2022/04/19 00:05:10;;;;;;;1.53;1.43;;;10.90;83.80;;;;;;5108849;28;20634;-69
2022/04/19 00:07:37;;;;;;;1.73;1.50;;;10.90;83.90;;;;;;5109204;28;20209;-69
2022/04/19 00:10:04;;;;;;;1.60;1.50;;;10.80;84.00;;;;;;5109439;28;20231;-69
2022/04/19 00:12:30;;;;;;;1.70;1.60;;;10.80;84.10;;;;;;5109648;28;20206;-69
2022/04/19 00:14:58;;;;;;;1.77;1.67;;;10.80;84.20;;;;;;5109296;28;20255;-69
2022/04/19 00:17:25;;;;;;;2.87;1.60;;;10.80;84.50;;;;;;5109138;28;20206;-69
2022/04/19 00:19:52;;;;;;;2.00;1.90;;;10.80;84.40;;;;;;5109458;28;20202;-69
2022/04/19 00:22:19;;;;;;;2.40;1.70;;;10.80;84.10;;;;;;5108619;28;20712;-69
2022/04/19 00:24:45;;;;;;;1.90;1.80;;;10.70;84.00;;;;;;5109046;28;20650;-69
2022/04/19 00:27:12;;;;;;;2.27;2.10;;;10.70;84.20;;;;;;5108750;28;20541;-69
2022/04/19 00:29:41;;;;;;;4.13;2.17;;;10.70;84.30;;;;;;5109269;28;20582;-69
2022/04/19 00:32:10;;;;;;;1.80;1.70;;;10.60;84.20;;;;;;5108991;28;20241;-69
2022/04/19 00:34:38;;;;;;;2.40;2.20;;;10.60;84.40;;;;;;5108906;28;20210;-69
2022/04/19 00:37:05;;;;;;;2.03;1.83;;;10.50;84.60;;;;;;5108815;28;20221;-69
2022/04/19 00:39:32;;;;;;;2.97;1.93;;;10.50;84.90;;;;;;5109145;28;20259;-69
2022/04/19 00:41:59;;;;;;;2.33;2.00;;;10.40;85.10;;;;;;5108867;28;20206;-69
2022/04/19 00:44:26;;;;;;;1.60;1.50;;;10.40;85.30;;;;;;5108725;28;20226;-69
2022/04/19 00:46:53;;;;;;;1.63;1.53;;;10.30;85.50;;;;;;5109048;28;20213;-69
2022/04/19 00:49:21;;;;;;;2.47;1.70;;;10.30;85.90;;;;;;5108207;28;20285;-68
2022/04/19 00:51:48;;;;;;;1.60;1.50;;;10.30;86.00;;;;;;5099460;28;21044;-68
2022/04/19 00:54:17;;;;;;;2.20;2.00;;;10.40;86.10;;;;;;5108550;28;20251;-68
2022/04/19 00:56:44;;;;;;;2.53;1.83;;;10.30;86.10;;;;;;5108438;28;20205;-68
2022/04/19 00:59:11;;;;;;;2.60;1.93;;;10.40;87.20;;;;;;5108462;28;20213;-68
2022/04/19 01:01:38;;;;;;;1.60;1.50;;;10.40;86.60;;;;;;5108609;28;20206;-68
2022/04/19 01:04:05;;;;;;;2.20;2.00;;;10.20;86.60;;;;;;5108653;28;20206;-69
2022/04/19 01:06:33;;;;;;;1.93;1.83;;;10.20;86.90;;;;;;5108717;28;20226;-68
2022/04/19 01:09:00;;;;;;;2.07;1.97;;;10.20;87.00;;;;;;5108431;28;20259;-69
2022/04/19 01:14:12;;;;;;;1.70;1.60;;;10.20;87.40;;;;;;5114084;27;20205;-69
2022/04/19 01:16:40;;;;;;;3.17;2.00;;;10.20;87.70;;;;;;5128820;27;20205;-69
2022/04/19 01:19:09;;;;;;;2.17;2.07;;;10.20;88.00;;;;;;5116460;28;20202;-69
2022/04/19 01:21:48;;;;;;;1.70;1.60;;;10.10;88.10;;;;;;5099611;28;20316;-69
2022/04/19 01:24:15;;;;;;;2.23;1.70;;;10.00;88.40;;;;;;5108177;28;20250;-69
2022/04/19 01:26:42;;;;;;;2.30;1.97;;;10.10;88.50;;;;;;5108326;28;20209;-71
2022/04/19 01:29:10;;;;;;;2.20;2.00;;;10.10;88.40;;;;;;5108335;28;20202;-69
2022/04/19 01:31:37;;;;;;;2.03;1.80;;;10.10;88.90;;;;;;5108343;28;20202;-69
2022/04/19 01:34:04;;;;;;;1.80;1.70;;;10.00;89.00;;;;;;5107920;28;20272;-68
2022/04/19 01:36:31;;;;;;;2.10;2.00;;;9.90;89.30;;;;;;5108166;28;20222;-68
2022/04/19 01:38:59;;;;;;;2.40;1.97;;;10.00;89.50;;;;;;5107829;28;20255;-68
2022/04/19 01:41:26;;;;;;;2.20;2.00;;;9.90;89.30;;;;;;5108219;28;20216;-68
2022/04/19 01:43:52;;;;;;;3.00;1.80;;;9.90;90.10;;;;;;5108303;28;20214;-68
2022/04/19 01:46:19;;;;;;;1.80;1.70;;;9.80;89.70;;;;;;5107753;28;20282;-68
2022/04/19 01:48:46;;;;;;;1.90;1.80;;;9.60;90.00;;;;;;5107616;28;20543;-68
2022/04/19 01:51:14;;;;;;;2.50;1.80;;;9.60;90.10;;;;;;5107812;28;20221;-69
2022/04/19 01:53:41;;;;;;;1.90;1.80;;;9.60;90.20;;;;;;5108285;28;20556;-69
2022/04/19 01:56:09;;;;;;;2.07;1.83;;;9.50;90.30;;;;;;5107957;28;20293;-68
2022/04/19 01:58:37;;;;;;;2.10;1.67;;;9.50;90.30;;;;;;5108033;28;20206;-69
2022/04/19 02:01:06;;;;;;;2.00;1.90;;;9.60;90.40;;;;;;5107931;28;20202;-69
2022/04/19 02:03:34;;;;;;;3.13;1.90;;;9.60;90.40;;;;;;5107341;28;21033;-69
2022/04/19 02:06:00;;;;;;;1.73;1.63;;;9.60;90.40;;;;;;5107687;28;20226;-69
2022/04/19 02:08:27;;;;;;;2.17;1.80;;;9.70;90.40;;;;;;5108108;28;20199;-69
2022/04/19 02:10:54;;;;;;;1.70;1.60;;;9.60;90.50;;;;;;5107929;28;20210;-68
2022/04/19 02:13:22;;;;;;;1.50;1.40;;;9.70;90.50;;;;;;5107565;28;20210;-70
2022/04/19 02:15:49;;;;;;;2.40;2.07;;;9.70;90.50;;;;;;5107573;28;20214;-69
2022/04/19 02:18:15;;;;;;;1.87;1.70;;;9.70;90.60;;;;;;5107325;28;20275;-69
2022/04/19 02:20:44;;;;;;;1.60;1.50;;;9.70;90.60;;;;;;5107744;28;20202;-69
2022/04/19 02:23:12;;;;;;;1.70;1.60;;;9.60;90.50;;;;;;5107475;28;20660;-80
2022/04/19 02:25:39;;;;;;;1.67;1.57;;;9.60;90.50;;;;;;5107130;28;20222;-69
2022/04/19 02:28:06;;;;;;;2.97;1.57;;;9.60;90.60;;;;;;5107893;28;20206;-69
2022/04/19 02:30:34;;;;;;;1.70;1.60;;;9.50;90.60;;;;;;5110992;28;20616;-69
2022/04/19 02:33:02;;;;;;;1.73;1.60;;;9.50;90.70;;;;;;5111116;28;20206;-69
2022/04/19 02:35:31;;;;;;;2.10;1.87;;;9.50;90.70;;;;;;5102441;28;20313;-69
2022/04/19 02:38:00;;;;;;;2.77;1.60;;;9.50;90.70;;;;;;5091123;28;20222;-69
2022/04/19 02:40:28;;;;;;;2.70;1.60;;;9.50;90.70;;;;;;5108379;28;20202;-69
2022/04/19 02:42:55;;;;;;;2.83;1.90;;;9.50;90.60;;;;;;5108500;28;20622;-69
2022/04/19 02:45:22;;;;;;;1.57;1.47;;;9.40;90.60;;;;;;5108732;27;20233;-68
2022/04/19 02:48:01;;;;;;;2.73;1.80;;;9.40;90.60;;;;;;5108373;28;20206;-69
2022/04/19 02:50:28;;;;;;;2.00;1.77;;;9.40;90.60;;;;;;5108920;28;20229;-69
2022/04/19 02:52:55;;;;;;;1.90;1.70;;;9.40;90.70;;;;;;5108109;28;20202;-70
2022/04/19 02:55:21;;;;;;;1.83;1.73;;;9.40;90.70;;;;;;5108786;28;20201;-69
2022/04/19 02:57:48;;;;;;;3.60;1.80;;;9.40;90.60;;;;;;5108895;28;20205;-69
2022/04/19 03:00:16;;;;;;;1.77;1.67;;;9.40;90.60;;;;;;5108622;28;20205;-69
2022/04/19 03:02:42;;;;;;;1.70;1.60;;;9.30;90.50;;;;;;5108503;28;20202;-69
2022/04/19 03:05:11;;;;;;;2.30;1.53;;;9.30;90.60;;;;;;5108919;28;20756;-69
2022/04/19 03:07:37;;;;;;;1.70;1.60;;;9.20;90.60;;;;;;5108205;28;20205;-69
2022/04/19 03:10:04;;;;;;;3.20;1.87;;;9.10;90.60;;;;;;5110109;28;20194;-69
2022/04/19 03:12:31;;;;;;;3.23;1.83;;;9.10;90.60;;;;;;5090675;28;20203;-69
2022/04/19 03:14:57;;;;;;;2.17;1.77;;;9.10;90.70;;;;;;5096624;28;20668;-69
2022/04/19 03:17:24;;;;;;;2.83;1.87;;;9.10;90.80;;;;;;5110270;28;20214;-69
2022/04/19 03:19:51;;;;;;;1.87;1.77;;;9.10;90.80;;;;;;5110635;28;20262;-69
2022/04/19 03:22:19;;;;;;;1.70;1.60;;;9.10;90.90;;;;;;5109986;28;20233;-69
2022/04/19 03:30:14;;;;;;;4.03;1.60;;;9.00;91.00;;;;;;5109372;28;20301;-69
2022/04/19 03:32:43;;;;;;;1.70;1.60;;;9.00;91.00;;;;;;5109615;28;20755;-69
2022/04/19 03:35:10;;;;;;;4.17;1.93;;;8.90;91.00;;;;;;5109751;28;20664;-69
2022/04/19 03:37:39;;;;;;;4.40;1.73;;;8.90;91.20;;;;;;5110089;28;20703;-69
2022/04/19 03:40:07;;;;;;;1.80;1.70;;;8.90;91.20;;;;;;5110165;28;20206;-69
2022/04/19 03:42:33;;;;;;;2.27;2.10;;;8.80;91.20;;;;;;5110171;28;20274;-69
2022/04/19 03:45:00;;;;;;;1.63;1.13;;;8.80;91.20;;;;;;5109848;28;20633;-69
2022/04/19 03:47:27;;;;;;;2.27;1.90;;;8.80;91.20;;;;;;5109806;28;20232;-69
2022/04/19 03:49:53;;;;;;;1.73;1.60;;;8.80;91.20;;;;;;5110153;27;20255;-69
2022/04/19 03:52:20;;;;;;;2.23;2.03;;;8.80;91.30;;;;;;5109746;28;20206;-69
2022/04/19 03:54:48;;;;;;;2.40;1.60;;;8.70;91.30;;;;;;5109561;28;20757;-69
2022/04/19 03:57:15;;;;;;;1.90;1.80;;;8.70;91.30;;;;;;5109690;28;20279;-69
2022/04/19 03:59:42;;;;;;;1.80;1.70;;;8.60;91.40;;;;;;5109628;28;20238;-69
2022/04/19 04:02:09;;;;;;;1.90;1.77;;;8.50;91.60;;;;;;5109343;28;20197;-69
2022/04/19 04:04:36;;;;;;;2.10;1.90;;;8.60;91.60;;;;;;5109341;27;20202;-69
2022/04/19 04:07:03;;;;;;;1.77;1.67;;;8.60;91.50;;;;;;5109058;28;20210;-69
2022/04/19 04:09:32;;;;;;;2.03;1.83;;;8.60;91.50;;;;;;5109600;28;20206;-69
2022/04/19 04:12:01;;;;;;;4.70;2.20;;;8.60;91.50;;;;;;5108861;28;20209;-69
2022/04/19 04:14:28;;;;;;;1.87;1.73;;;8.60;91.50;;;;;;5109040;28;20575;-69
2022/04/19 04:16:55;;;;;;;2.20;1.97;;;8.50;91.60;;;;;;5109229;28;20265;-69
2022/04/19 04:19:21;;;;;;;4.50;1.80;;;8.50;91.70;;;;;;5108721;28;20660;-69
2022/04/19 04:21:48;;;;;;;2.23;1.70;;;8.50;91.80;;;;;;5108937;28;20793;-69
2022/04/19 04:24:15;;;;;;;1.57;1.47;;;8.50;92.00;;;;;;5109050;28;20259;-69
2022/04/19 04:26:41;;;;;;;1.87;1.77;;;8.50;92.00;;;;;;5108909;28;20217;-69
2022/04/19 04:29:09;;;;;;;1.80;1.67;;;8.50;92.00;;;;;;5108731;28;20297;-69
2022/04/19 04:31:39;;;;;;;2.33;2.10;;;8.50;92.10;;;;;;5109050;28;20251;-69
2022/04/19 04:34:06;;;;;;;3.80;1.87;;;8.50;92.20;;;;;;5108666;28;20202;-69
2022/04/19 04:36:32;;;;;;;2.20;2.00;;;8.40;92.30;;;;;;5108818;28;20321;-69
2022/04/19 04:38:59;;;;;;;2.23;1.60;;;8.40;92.40;;;;;;5108584;28;20700;-69
2022/04/19 04:41:26;;;;;;;1.90;1.70;;;8.40;92.50;;;;;;5109071;28;20247;-69
2022/04/19 04:43:52;;;;;;;1.83;1.73;;;8.40;92.50;;;;;;5109219;27;20214;-69
2022/04/19 04:51:49;;;;;;;1.90;1.70;;;8.40;92.70;;;;;;5108245;28;20650;-69
2022/04/19 04:54:16;;;;;;;1.87;1.77;;;8.30;92.80;;;;;;5108380;28;20568;-69
2022/04/19 04:56:42;;;;;;;2.57;1.87;;;8.30;92.90;;;;;;5108730;28;20230;-69
2022/04/19 04:59:09;;;;;;;2.47;1.50;;;8.30;93.00;;;;;;5108646;28;20282;-69
2022/04/19 05:01:37;;;;;;;1.87;1.50;;;8.30;93.10;;;;;;5108729;28;20557;-69
2022/04/19 05:04:04;;;;;;;4.13;2.03;;;8.30;93.20;;;;;;5097657;28;20256;-69
2022/04/19 05:06:31;;;;;;;1.87;1.77;;;8.30;93.30;;;;;;5097519;28;20684;-69
2022/04/19 05:08:58;;;;;;;1.67;1.57;;;8.40;93.50;;;;;;5087261;28;20206;-69
2022/04/19 05:11:24;;;;;;;2.23;2.10;;;8.30;93.40;;;;;;5088098;28;20214;-69
2022/04/19 05:13:51;;;;;;;1.97;1.77;;;8.30;93.60;;;;;;5088055;28;20260;-69
2022/04/19 05:16:17;;;;;;;5.40;2.10;;;8.30;93.70;;;;;;5088014;28;20226;-69
2022/04/19 05:18:45;;;;;;;2.77;1.93;;;8.30;93.90;;;;;;5088161;28;20207;-70
2022/04/19 05:21:12;;;;;;;6.50;2.40;;;8.30;93.90;;;;;;5093467;28;20234;-69
2022/04/19 05:23:39;;;;;;;3.30;2.10;;;8.40;94.10;;;;;;5107974;28;20207;-69
2022/04/19 05:26:05;;;;;;;4.30;2.10;;;8.40;94.20;;;;;;5108281;28;20210;-69
2022/04/19 05:28:32;;;;;;;2.70;2.00;;;8.40;94.20;;;;;;5108444;28;20259;-69
2022/04/19 05:30:59;;;;;;;2.00;1.90;;;8.40;94.30;;;;;;5108301;28;20210;-69
2022/04/19 05:33:25;;;;;;;3.20;2.17;;;8.40;94.40;;;;;;5108250;28;20210;-69
2022/04/19 05:35:53;;;;;;;2.43;2.07;;;8.30;94.40;;;;;;5107866;28;20763;-69
2022/04/19 05:38:20;;;;;;;1.93;1.83;;;8.40;94.60;;;;;;5108270;28;20206;-69
2022/04/19 05:40:47;;;;;;;2.57;2.10;;;8.50;94.60;;;;;;5108226;28;20206;-69
2022/04/19 05:43:13;;;;;;;3.80;2.20;;;8.50;94.70;;;;;;5108010;28;20241;-69
2022/04/19 05:45:40;;;;;;;2.73;2.53;;;8.40;94.70;;;;;;5108051;28;20198;-69
2022/04/19 05:48:07;;;;;;;5.63;2.33;;;8.50;94.70;;;;;;5107715;28;20722;-69
2022/04/19 05:50:34;;;;;;;2.73;2.53;;;8.50;94.60;;;;;;5107939;28;20210;-69
2022/04/19 05:53:02;;;;;;;3.60;2.70;;;8.40;94.90;;;;;;5108033;28;20259;-69
2022/04/19 05:55:29;;;;;;;4.43;2.50;;;8.40;95.00;;;;;;5108109;28;20202;-69
2022/04/19 05:57:55;;;;;;;3.83;2.67;;;8.50;95.10;;;;;;5108096;28;20250;-69
2022/04/19 06:00:22;;;;;;;8.80;3.47;;;8.40;95.10;;;;;;5107759;28;20259;-69
2022/04/19 06:05:34;;;;;;;2.70;2.50;;;8.60;95.20;;;;;;5111608;28;20189;-69
2022/04/19 06:08:02;;;;;;;3.27;2.77;;;8.60;95.10;;;;;;5111898;28;20205;-69
2022/04/19 06:10:28;;;;;;;2.83;2.63;;;8.60;94.90;;;;;;5111714;28;20251;-69
2022/04/19 06:12:55;;;;;;;4.57;2.93;;;8.60;94.90;;;;;;5111967;28;20267;-69
2022/04/19 06:15:21;;;;;;;3.83;2.40;;;8.70;95.00;;;;;;5111369;28;20607;-69
2022/04/19 06:17:48;;;;;;;6.30;2.83;;;8.80;95.00;;;;;;5111585;27;20238;-69
2022/04/19 06:20:15;;;;;;;6.67;3.10;;;8.90;94.80;;;;;;5111791;28;20258;-69
2022/04/19 06:22:42;;;;;;;3.10;2.80;;;8.80;94.70;;;;;;5111247;28;20253;-69
2022/04/19 06:25:10;;;;;;;4.60;2.93;;;8.90;94.70;;;;;;5111510;28;20255;-69
2022/04/19 06:27:36;;;;;;;3.53;2.30;;;8.90;94.60;;;;;;5091321;28;20263;-69
2022/04/19 06:30:04;;;;;;;2.80;2.60;;;8.90;94.70;;;;;;5090908;28;20228;-69
2022/04/19 06:32:31;;;;;;;3.93;2.60;;;9.00;94.50;;;;;;5090620;28;20238;-69
2022/04/19 06:34:57;;;;;;;2.40;2.20;;;9.10;94.30;;;;;;5091160;28;20199;-69
2022/04/19 06:37:25;;;;;;;3.90;2.60;;;9.10;94.00;;;;;;5090881;28;20238;-69
2022/04/19 06:39:51;;;;;;;4.50;2.83;;;9.10;94.00;;;;;;5090975;28;20199;-69
2022/04/19 06:42:19;;;;;;;2.63;2.43;;;9.10;93.90;;;;;;5101603;28;20283;-69
2022/04/19 06:44:46;;;;;;;2.93;2.63;;;9.00;94.10;;;;;;5111023;28;20206;-69
2022/04/19 06:47:13;;;;;;;3.00;2.70;;;9.10;94.20;;;;;;5110832;28;20706;-69
2022/04/19 06:49:40;;;;;;;3.03;2.53;;;9.10;93.80;;;;;;5111257;28;20210;-69
2022/04/19 06:52:08;;;;;;;5.77;2.67;;;9.20;93.60;;;;;;5110481;28;20302;-69
2022/04/19 06:54:34;;;;;;;5.93;3.00;;;9.20;93.60;;;;;;5110995;28;20210;-69
2022/04/19 06:57:01;;;;;;;19.97;3.70;;;9.20;93.70;;;;;;5110780;28;20385;-69
2022/04/19 06:59:29;;;;;;;2.93;2.60;;;9.10;93.60;;;;;;5110687;28;20640;-68
2022/04/19 07:01:56;;;;;;;2.93;2.73;;;9.20;93.80;;;;;;5110901;28;20552;-69
2022/04/19 07:04:22;;;;;;;3.57;2.77;;;9.30;93.60;;;;;;5110665;28;20252;-69
2022/04/19 07:06:49;;;;;;;2.87;2.60;;;9.40;93.80;;;;;;5110827;28;20255;-69
2022/04/19 07:09:17;;;;;;;2.93;2.73;;;9.50;93.70;;;;;;5110705;28;20288;-69
2022/04/19 07:11:43;;;;;;;5.30;3.20;;;9.60;93.40;;;;;;5110835;28;20238;-69
2022/04/19 07:14:10;;;;;;;2.87;2.67;;;9.60;93.40;;;;;;5110140;28;20605;-69
2022/04/19 07:16:38;;;;;;;4.43;2.83;;;9.70;93.20;;;;;;5110546;28;20221;-69
2022/04/19 07:19:04;;;;;;;4.30;2.90;;;9.80;93.20;;;;;;5109899;27;20952;-69
2022/04/19 07:27:00;;;;;;;3.80;3.00;;;9.90;92.60;;;;;;5110035;28;20655;-69
2022/04/19 07:29:27;;;;;;;3.40;3.10;;;10.00;92.90;;;;;;5110059;28;20206;-68
2022/04/19 07:31:56;;;;;;;5.07;3.33;;;10.10;92.60;;;;;;5110635;28;20255;-69
2022/04/19 07:34:24;;;;;;;5.37;3.23;;;10.10;91.90;;;;;;5109952;28;20676;-69
2022/04/19 07:36:50;;;;;;;3.77;3.30;;;10.20;91.20;;;;;;5110132;28;20226;-69
2022/04/19 07:39:18;;;;;;;4.00;3.13;;;10.20;91.30;;;;;;5110066;28;20717;-69
2022/04/19 07:41:46;;;;;;;3.47;3.17;;;10.30;91.40;;;;;;5109808;28;20249;-69
2022/04/19 07:44:15;;;;;;;3.37;3.07;;;10.30;90.70;;;;;;5110004;28;20202;-69
2022/04/19 07:46:42;;;;;;;4.33;3.50;;;10.30;90.90;;;;;;5109833;28;20206;-69
2022/04/19 07:49:10;;;;;;;3.20;2.90;;;10.40;90.70;;;;;;5109483;28;20213;-69
2022/04/19 07:51:37;;;;;;;3.93;3.30;;;10.40;90.80;;;;;;5109606;28;20206;-69
2022/04/19 07:54:04;;;;;;;2.93;2.70;;;10.50;90.70;;;;;;5109714;28;20248;-69
2022/04/19 07:56:30;;;;;;;2.97;2.77;;;10.50;90.30;;;;;;5109645;28;20606;-70
2022/04/19 07:58:57;;;;;;;3.20;2.77;;;10.60;89.40;;;;;;5109754;27;20257;-69
2022/04/19 08:01:24;;;;;;;2.97;2.67;;;10.60;89.80;;;;;;5109792;28;20690;-69
2022/04/19 08:03:51;;;;;;;2.70;2.50;;;10.70;90.10;;;;;;5109068;28;20686;-69
2022/04/19 08:06:19;;;;;;;4.23;2.77;;;10.80;90.10;;;;;;5109142;28;20209;-69
2022/04/19 08:08:46;;;;;;;4.97;2.67;;;10.90;90.20;;;;;;5109650;28;20213;-69
2022/04/19 08:11:13;;;;;;;3.67;2.67;;;11.00;90.00;;;;;;5109534;28;20210;-69
2022/04/19 08:13:40;;;;;;;3.23;2.67;;;11.00;89.60;;;;;;5109655;28;20202;-69
2022/04/19 08:16:08;;;;;;;2.57;2.37;;;11.10;89.90;;;;;;5109444;28;20298;-69
2022/04/19 08:18:34;;;;;;;5.40;2.60;;;11.20;89.50;;;;;;5109288;28;20280;-69
2022/04/19 08:21:01;;;;;;;2.33;2.17;;;11.30;89.20;;;;;;5109092;28;20246;-69
2022/04/19 08:23:33;;;;;;;4.73;2.27;;;11.40;89.70;;;;;;5109081;28;20304;-69
2022/04/19 08:25:59;;;;;;;2.57;1.87;;;11.40;89.90;;;;;;5108716;28;20788;-69
2022/04/19 08:28:26;;;;;;;6.53;2.07;;;11.50;89.40;;;;;;5108782;28;20209;-69
2022/04/19 08:30:53;;;;;;;3.27;2.00;;;11.60;87.70;;;;;;5109242;28;20205;-69
2022/04/19 08:33:19;;;;;;;4.33;1.97;;;11.50;87.30;;;;;;5108802;28;20259;-69
2022/04/19 08:35:46;;;;;;;3.63;2.07;;;11.60;87.30;;;;;;5109045;28;20214;-69
2022/04/19 08:38:12;;;;;;;1.93;1.83;;;11.60;87.20;;;;;;5108971;28;20261;-69
2022/04/19 08:40:40;;;;;;;2.77;1.80;;;11.60;87.10;;;;;;5109168;28;20205;-69
2022/04/19 08:43:08;;;;;;;8.53;2.43;;;11.60;87.80;;;;;;5108475;28;20245;-69
2022/04/19 08:45:34;;;;;;;3.83;1.70;;;11.70;86.30;;;;;;5108979;28;20213;-69
2022/04/19 08:48:01;;;;;;;5.47;2.03;;;11.80;86.80;;;;;;5108306;28;20205;-69
2022/04/19 08:50:30;;;;;;;2.60;1.80;;;11.90;86.30;;;;;;5109115;28;20206;-68
2022/04/19 08:58:26;;;;;;;6.47;2.17;;;12.20;85.30;;;;;;5108314;28;20244;-69
2022/04/19 09:00:53;;;;;;;2.93;1.77;;;12.40;83.90;;;;;;5108656;28;20636;-69
2022/04/19 09:03:20;;;;;;;1.83;1.73;;;12.40;83.40;;;;;;5108072;28;20254;-69
2022/04/19 09:05:51;;;;;;;1.73;1.50;;;12.40;83.60;;;;;;5108514;28;20247;-68
2022/04/19 09:08:19;;;;;;;1.40;1.30;;;12.50;83.70;;;;;;5108613;28;20333;-69
2022/04/19 09:10:47;;;;;;;2.23;1.27;;;12.70;83.70;;;;;;5108582;28;20202;-69
2022/04/19 09:13:21;;;;;;;1.40;1.30;;;12.70;83.00;;;;;;5108407;28;20202;-69
2022/04/19 09:15:48;;;;;;;1.50;1.40;;;12.80;83.60;;;;;;5108558;28;20229;-69
2022/04/19 09:18:20;;;;;;;3.60;1.30;;;12.90;82.50;;;;;;5108088;28;20260;-69
2022/04/19 09:20:50;;;;;;;4.00;1.40;;;13.00;82.50;;;;;;5108358;28;20195;-69
2022/04/19 09:23:17;;;;;;;2.60;1.53;;;13.00;83.70;;;;;;5108236;28;20346;-69
2022/04/19 09:25:44;;;;;;;1.23;1.20;;;13.10;82.20;;;;;;5108165;28;20190;-69
2022/04/19 09:28:20;;;;;;;1.60;1.40;;;13.20;83.00;;;;;;5108299;28;20206;-69
2022/04/19 09:30:49;;;;;;;1.83;1.30;;;13.20;82.20;;;;;;5108195;28;20251;-69
2022/04/19 09:33:17;;;;;;;2.00;1.27;;;13.30;82.30;;;;;;5107964;28;20210;-69
2022/04/19 09:35:47;;;;;;;1.70;1.23;;;13.30;82.60;;;;;;5108258;28;20229;-68
2022/04/19 09:38:15;;;;;;;2.10;1.40;;;13.40;83.60;;;;;;5109429;28;20283;-69
2022/04/19 09:40:43;;;;;;;1.20;1.20;;;13.40;82.20;;;;;;5112597;28;20247;-69
2022/04/19 09:43:16;;;;;;;1.87;1.30;;;13.50;83.00;;;;;;5112147;28;20326;-69
2022/04/19 09:45:50;;;;;;;1.43;1.33;;;13.60;83.00;;;;;;5112252;28;20213;-69
2022/04/19 09:48:17;;;;;;;1.30;1.30;;;13.70;81.90;;;;;;5112078;28;20225;-69
2022/04/19 09:50:49;;;;;;;2.87;1.40;;;13.70;82.90;;;;;;5112045;28;20676;-69
2022/04/19 09:53:18;;;;;;;4.20;1.50;;;13.70;82.50;;;;;;5112219;28;20247;-68
2022/04/19 09:55:47;;;;;;;1.73;1.63;;;13.80;82.40;;;;;;5112116;28;20206;-69
2022/04/19 09:58:15;;;;;;;2.67;1.40;;;13.90;81.60;;;;;;5112080;28;20282;-69
2022/04/19 10:00:43;;;;;;;1.20;1.10;;;13.90;81.50;;;;;;5112192;28;20287;-69
2022/04/19 10:08:42;;;;;;;1.10;0.90;;;14.20;81.50;;;;;;5111853;28;20224;-69
2022/04/19 10:11:10;;;;;;;3.47;1.20;;;14.20;80.60;;;;;;5111717;28;20206;-69
2022/04/19 10:13:39;;;;;;;1.13;0.80;;;14.30;81.00;;;;;;5111675;28;20668;-69
2022/04/19 10:16:11;;;;;;;1.23;1.07;;;14.40;80.70;;;;;;5111891;28;20262;-69
2022/04/19 10:18:39;;;;;;;1.20;1.10;;;14.50;78.80;;;;;;5111099;28;20226;-69
2022/04/19 10:21:09;;;;;;;3.90;0.90;;;14.50;77.70;;;;;;5111439;28;20244;-69
2022/04/19 10:23:38;;;;;;;1.80;1.17;;;14.60;79.40;;;;;;5111431;28;20665;-69
2022/04/19 10:26:16;;;;;;;0.83;0.83;;;14.70;77.90;;;;;;5111369;28;20206;-69
2022/04/19 10:28:43;;;;;;;0.80;0.80;;;14.70;75.60;;;;;;5111615;28;20591;-69
2022/04/19 10:31:11;;;;;;;1.07;0.97;;;14.80;76.70;;;;;;5111543;28;20206;-69
2022/04/19 10:33:48;;;;;;;2.90;1.33;;;15.00;76.90;;;;;;5111086;28;20573;-69
2022/04/19 10:36:17;;;;;;;0.90;0.90;;;15.10;78.40;;;;;;5111435;28;20222;-68
2022/04/19 10:38:45;;;;;;;1.97;1.20;;;15.30;77.10;;;;;;5111216;28;20647;-68
2022/04/19 10:41:32;;;;;;;0.77;0.77;;;15.40;76.50;;;;;;5111047;28;20234;-69
2022/04/19 10:44:24;;;;;;;3.57;1.30;;;15.40;76.80;;;;;;5110793;28;20214;-69
2022/04/19 10:47:14;;;;;;;1.23;1.20;;;15.50;76.50;;;;;;5075780;28;20210;-68
2022/04/19 10:50:04;;;;;;;1.07;1.00;;;15.40;75.40;;;;;;5089908;28;20191;-69
2022/04/19 10:52:47;;;;;;;1.90;0.90;;;15.40;76.40;;;;;;5102706;28;20617;-68
2022/04/19 10:55:28;;;;;;;2.40;1.50;;;15.40;76.50;;;;;;5110893;28;20209;-68
2022/04/19 10:58:12;;;;;;;2.37;0.87;;;15.30;76.30;;;;;;5111158;28;20225;-68
2022/04/19 11:00:51;;;;;;;3.67;1.07;;;15.30;75.60;;;;;;5110862;28;20205;-68
2022/04/19 11:03:20;;;;;;;1.90;0.97;;;15.30;74.70;;;;;;5110381;28;20773;-68
2022/04/19 11:05:50;;;;;;;1.33;0.93;;;15.40;75.70;;;;;;5110909;28;20209;-69
2022/04/19 11:08:35;;;;;;;1.20;0.77;;;15.60;75.80;;;;;;5111070;28;20241;-69
2022/04/19 11:11:23;;;;;;;23.13;2.47;;;15.90;75.80;;;;;;5110687;28;20216;-69
2022/04/19 11:14:18;;;;;;;2.60;1.10;;;16.20;74.00;;;;;;5110519;28;20206;-68
2022/04/19 11:16:48;;;;;;;2.40;1.17;;;16.10;73.00;;;;;;5102929;28;20331;-68
2022/04/19 11:19:17;;;;;;;3.73;1.20;;;16.00;73.40;;;;;;5110330;28;20222;-69
2022/04/19 11:21:51;;;;;;;2.87;1.20;;;15.70;72.40;;;;;;5110329;28;20238;-68
2022/04/19 11:24:59;;;;;;;1.63;0.90;;;15.70;72.80;;;;;;5110367;28;20209;-68
2022/04/19 11:27:45;;;;;;;5.30;1.07;;;15.90;75.90;;;;;;5110566;28;20190;-68
2022/04/19 11:30:13;;;;;;;1.70;1.00;;;16.00;73.30;;;;;;5109912;28;20202;-69
2022/04/19 11:32:40;;;;;;;3.37;1.40;;;16.10;71.70;;;;;;5109721;28;20987;-68
2022/04/19 11:35:07;;;;;;;1.00;0.90;;;16.30;72.80;;;;;;5110245;28;20259;-68
2022/04/19 11:37:35;;;;;;;1.80;1.00;;;16.60;73.60;;;;;;5101733;28;20276;-69
2022/04/19 11:48:27;;;;;;;2.13;1.27;;;15.80;72.20;;;;;;5109634;28;20255;-69
2022/04/19 11:50:54;;;;;;;2.40;1.20;;;15.50;72.20;;;;;;5109979;27;20279;-68
2022/04/19 11:53:25;;;;;;;1.67;1.00;;;15.40;73.10;;;;;;5109757;28;20202;-69
2022/04/19 11:55:52;;;;;;;7.10;1.30;;;15.30;73.70;;;;;;5109803;28;20271;-69
2022/04/19 11:58:22;;;;;;;0.87;0.83;;;15.30;74.70;;;;;;5109523;28;20241;-68
2022/04/19 12:00:58;;;;;;;1.17;1.07;;;15.30;74.00;;;;;;5109209;28;20243;-69
2022/04/19 12:03:26;;;;;;;1.57;1.20;;;15.20;74.30;;;;;;5108548;28;20208;-68
2022/04/19 12:05:54;;;;;;;2.10;1.23;;;15.30;75.20;;;;;;5109424;28;20727;-68
2022/04/19 12:08:33;;;;;;;1.33;1.20;;;15.50;75.30;;;;;;5109374;28;20665;-68
2022/04/19 12:11:01;;;;;;;1.00;1.00;;;15.70;75.30;;;;;;5109607;28;20201;-68
2022/04/19 12:13:28;;;;;;;2.33;1.20;;;15.90;75.50;;;;;;5109473;28;20202;-68
2022/04/19 12:15:54;;;;;;;4.13;1.40;;;15.90;74.30;;;;;;5109192;28;20206;-68
2022/04/19 12:18:36;;;;;;;3.97;1.40;;;16.00;74.40;;;;;;5108636;28;20230;-69
2022/04/19 12:21:07;;;;;;;1.43;1.30;;;16.10;74.10;;;;;;5105645;28;20241;-68
2022/04/19 12:23:37;;;;;;;2.47;1.00;;;16.20;74.70;;;;;;5109134;28;20206;-69
2022/04/19 12:26:08;;;;;;;1.73;1.50;;;16.40;73.70;;;;;;5109015;28;20256;-68
2022/04/19 12:28:42;;;;;;;2.57;1.10;;;16.40;74.20;;;;;;5108932;28;20213;-69
2022/04/19 12:31:08;;;;;;;1.60;1.30;;;16.60;74.90;;;;;;5108364;28;20651;-68
2022/04/19 12:33:37;;;;;;;2.83;1.20;;;16.80;75.20;;;;;;5108544;28;20199;-69
2022/04/19 12:36:13;;;;;;;1.27;1.17;;;17.20;75.00;;;;;;5108537;28;20257;-69
2022/04/19 12:38:41;;;;;;;4.87;1.43;;;17.30;73.70;;;;;;5108462;28;20230;-68
2022/04/19 12:41:15;;;;;;;2.27;1.57;;;17.10;73.40;;;;;;5108690;28;20198;-68
2022/04/19 12:43:47;;;;;;;7.47;1.80;;;16.90;72.80;;;;;;5109065;28;20193;-68
2022/04/19 12:46:14;;;;;;;20.83;2.97;;;16.60;73.70;;;;;;5108609;28;20198;-68
2022/04/19 12:48:41;;;;;;;3.70;1.20;;;16.70;75.40;;;;;;5108698;28;20262;-69
2022/04/19 12:51:08;;;;;;;6.57;1.53;;;16.80;74.90;;;;;;5105382;28;20256;-69
2022/04/19 12:53:36;;;;;;;2.60;1.73;;;17.00;74.70;;;;;;5104798;28;20727;-69
2022/04/19 12:56:42;;;;;;;67.53;6.27;;;17.10;74.80;;;;;;5105621;28;20202;-69
2022/04/19 12:59:08;;;;;;;2.80;1.80;;;17.00;74.20;;;;;;5106326;28;20234;-69
2022/04/19 13:01:36;;;;;;;3.23;1.80;;;16.70;74.20;;;;;;5105859;28;20640;-69
2022/04/19 13:04:03;;;;;;;1.90;1.63;;;16.90;76.00;;;;;;5106005;28;20194;-69
2022/04/19 13:14:43;;;;;;;4.77;1.57;;;17.70;74.50;;;;;;5105929;28;20314;-69
2022/04/19 13:17:12;;;;;;;1.43;1.37;;;17.60;74.70;;;;;;5106208;28;20846;-69
2022/04/19 13:19:39;;;;;;;1.90;1.67;;;17.30;74.20;;;;;;5106221;28;20222;-68
2022/04/19 13:22:06;;;;;;;1.50;1.40;;;16.90;74.20;;;;;;5105916;28;20646;-68
2022/04/19 13:24:33;;;;;;;1.27;1.10;;;16.60;74.10;;;;;;5085374;28;20673;-68
2022/04/19 13:27:01;;;;;;;4.23;1.53;;;16.70;75.70;;;;;;5101252;28;20703;-68
2022/04/19 13:29:29;;;;;;;3.00;1.23;;;17.10;75.60;;;;;;5102393;28;20573;-68
2022/04/19 13:31:55;;;;;;;1.50;1.40;;;17.30;75.60;;;;;;5085236;28;20660;-68
2022/04/19 13:34:22;;;;;;;7.90;1.80;;;17.50;74.60;;;;;;5104157;28;20301;-68
2022/04/19 13:36:49;;;;;;;2.07;1.33;;;17.60;75.10;;;;;;5126695;27;20819;-68
2022/04/19 13:39:16;;;;;;;1.50;1.30;;;17.70;74.10;;;;;;5114334;28;20242;-68
2022/04/19 13:41:42;;;;;;;2.23;1.00;;;17.40;73.00;;;;;;5108111;28;20206;-69
2022/04/19 13:44:11;;;;;;;2.53;1.30;;;17.20;73.80;;;;;;5106113;28;20777;-69
2022/04/19 13:46:38;;;;;;;7.50;1.93;;;17.00;73.90;;;;;;5098147;28;20212;-69